sensor_id;sensor_type;location;lat;lon;timestamp;P1;durP1;ratioP1;P2;durP2;ratioP2
52188;SDS011;38162;45.926;13.608;2024-03-17T00:00:03;31.08;;;19.83;;
52188;SDS011;38162;45.926;13.608;2024-03-17T00:02:30;30.63;;;20.27;;
52188;SDS011;38162;45.926;13.608;2024-03-17T00:04:56;29.63;;;19.30;;
52188;SDS011;38162;45.926;13.608;2024-03-17T00:07:22;29.15;;;18.75;;
52188;SDS011;38162;45.926;13.608;2024-03-17T00:16:23;29.50;;;19.45;;
52188;SDS011;38162;45.926;13.608;2024-03-17T00:26:46;28.30;;;18.75;;
52188;SDS011;38162;45.926;13.608;2024-03-17T00:30:09;22.75;;;17.40;;
52188;SDS011;38162;45.926;13.608;2024-03-17T00:36:22;26.50;;;16.55;;
52188;SDS011;38162;45.926;13.608;2024-03-17T00:38:48;21.70;;;16.80;;
52188;SDS011;38162;45.926;13.608;2024-03-17T00:41:17;21.00;;;15.73;;
52188;SDS011;38162;45.926;13.608;2024-03-17T00:43:44;24.63;;;15.88;;
52188;SDS011;38162;45.926;13.608;2024-03-17T00:46:10;21.90;;;16.52;;
52188;SDS011;38162;45.926;13.608;2024-03-17T00:48:37;25.40;;;16.70;;
52188;SDS011;38162;45.926;13.608;2024-03-17T00:51:02;21.85;;;16.48;;
52188;SDS011;38162;45.926;13.608;2024-03-17T00:53:29;20.63;;;15.15;;
52188;SDS011;38162;45.926;13.608;2024-03-17T00:55:55;21.27;;;16.25;;
52188;SDS011;38162;45.926;13.608;2024-03-17T00:58:25;24.08;;;17.30;;
52188;SDS011;38162;45.926;13.608;2024-03-17T01:00:51;21.08;;;16.42;;
52188;SDS011;38162;45.926;13.608;2024-03-17T01:03:16;19.75;;;16.10;;
52188;SDS011;38162;45.926;13.608;2024-03-17T01:05:43;22.38;;;17.98;;
52188;SDS011;38162;45.926;13.608;2024-03-17T01:08:17;22.38;;;16.30;;
52188;SDS011;38162;45.926;13.608;2024-03-17T01:10:44;25.05;;;17.77;;
52188;SDS011;38162;45.926;13.608;2024-03-17T01:13:10;21.50;;;16.60;;
52188;SDS011;38162;45.926;13.608;2024-03-17T01:15:36;24.83;;;17.85;;
52188;SDS011;38162;45.926;13.608;2024-03-17T01:18:03;25.65;;;17.63;;
52188;SDS011;38162;45.926;13.608;2024-03-17T01:20:32;22.17;;;17.48;;
52188;SDS011;38162;45.926;13.608;2024-03-17T01:22:59;32.25;;;17.77;;
52188;SDS011;38162;45.926;13.608;2024-03-17T01:25:25;32.40;;;18.80;;
52188;SDS011;38162;45.926;13.608;2024-03-17T01:27:52;32.15;;;18.00;;
52188;SDS011;38162;45.926;13.608;2024-03-17T01:30:17;29.48;;;17.67;;
52188;SDS011;38162;45.926;13.608;2024-03-17T01:32:44;23.73;;;17.05;;
52188;SDS011;38162;45.926;13.608;2024-03-17T01:35:11;27.50;;;18.38;;
52188;SDS011;38162;45.926;13.608;2024-03-17T01:37:37;26.45;;;17.50;;
52188;SDS011;38162;45.926;13.608;2024-03-17T01:40:03;30.17;;;19.05;;
52188;SDS011;38162;45.926;13.608;2024-03-17T01:42:33;28.45;;;19.65;;
52188;SDS011;38162;45.926;13.608;2024-03-17T01:44:59;28.33;;;18.75;;
52188;SDS011;38162;45.926;13.608;2024-03-17T01:47:25;24.77;;;19.13;;
52188;SDS011;38162;45.926;13.608;2024-03-17T01:49:51;25.33;;;18.63;;
52188;SDS011;38162;45.926;13.608;2024-03-17T02:16:16;24.95;;;16.52;;
52188;SDS011;38162;45.926;13.608;2024-03-17T02:18:44;22.13;;;15.48;;
52188;SDS011;38162;45.926;13.608;2024-03-17T02:21:10;21.88;;;15.75;;
52188;SDS011;38162;45.926;13.608;2024-03-17T02:23:36;20.20;;;14.60;;
52188;SDS011;38162;45.926;13.608;2024-03-17T02:26:01;23.67;;;15.25;;
52188;SDS011;38162;45.926;13.608;2024-03-17T02:28:28;18.83;;;15.63;;
52188;SDS011;38162;45.926;13.608;2024-03-17T02:30:54;22.50;;;15.57;;
52188;SDS011;38162;45.926;13.608;2024-03-17T02:33:20;23.45;;;14.82;;
52188;SDS011;38162;45.926;13.608;2024-03-17T02:35:48;22.88;;;15.48;;
52188;SDS011;38162;45.926;13.608;2024-03-17T02:38:17;22.17;;;15.40;;
52188;SDS011;38162;45.926;13.608;2024-03-17T02:41:05;23.08;;;16.23;;
52188;SDS011;38162;45.926;13.608;2024-03-17T02:43:31;23.00;;;16.42;;
52188;SDS011;38162;45.926;13.608;2024-03-17T02:45:57;24.33;;;15.17;;
52188;SDS011;38162;45.926;13.608;2024-03-17T02:48:23;21.75;;;15.80;;
52188;SDS011;38162;45.926;13.608;2024-03-17T02:50:50;24.70;;;15.47;;
52188;SDS011;38162;45.926;13.608;2024-03-17T02:53:16;21.73;;;16.00;;
52188;SDS011;38162;45.926;13.608;2024-03-17T02:55:41;20.85;;;15.90;;
52188;SDS011;38162;45.926;13.608;2024-03-17T02:58:07;24.90;;;15.70;;
52188;SDS011;38162;45.926;13.608;2024-03-17T03:00:33;19.57;;;15.37;;
52188;SDS011;38162;45.926;13.608;2024-03-17T03:03:00;19.97;;;14.73;;
52188;SDS011;38162;45.926;13.608;2024-03-17T03:05:26;25.65;;;15.52;;
52188;SDS011;38162;45.926;13.608;2024-03-17T03:07:51;19.63;;;15.38;;
52188;SDS011;38162;45.926;13.608;2024-03-17T03:10:18;24.33;;;16.47;;
52188;SDS011;38162;45.926;13.608;2024-03-17T03:12:44;21.23;;;15.77;;
52188;SDS011;38162;45.926;13.608;2024-03-17T03:15:10;21.40;;;16.47;;
52188;SDS011;38162;45.926;13.608;2024-03-17T03:17:36;24.03;;;17.27;;
52188;SDS011;38162;45.926;13.608;2024-03-17T03:20:01;25.53;;;17.23;;
52188;SDS011;38162;45.926;13.608;2024-03-17T03:22:28;26.27;;;16.40;;
52188;SDS011;38162;45.926;13.608;2024-03-17T03:24:54;24.53;;;17.13;;
52188;SDS011;38162;45.926;13.608;2024-03-17T03:27:20;19.70;;;15.67;;
52188;SDS011;38162;45.926;13.608;2024-03-17T03:29:46;23.97;;;16.83;;
52188;SDS011;38162;45.926;13.608;2024-03-17T03:35:31;22.67;;;16.40;;
52188;SDS011;38162;45.926;13.608;2024-03-17T03:39:04;23.40;;;16.20;;
52188;SDS011;38162;45.926;13.608;2024-03-17T03:46:01;24.20;;;15.97;;
52188;SDS011;38162;45.926;13.608;2024-03-17T03:48:54;23.23;;;15.63;;
52188;SDS011;38162;45.926;13.608;2024-03-17T03:52:21;29.07;;;17.37;;
52188;SDS011;38162;45.926;13.608;2024-03-17T03:55:29;24.10;;;16.30;;
52188;SDS011;38162;45.926;13.608;2024-03-17T03:57:37;23.10;;;16.17;;
52188;SDS011;38162;45.926;13.608;2024-03-17T04:00:03;25.33;;;17.57;;
52188;SDS011;38162;45.926;13.608;2024-03-17T04:02:39;24.97;;;18.07;;
52188;SDS011;38162;45.926;13.608;2024-03-17T04:05:09;24.30;;;17.53;;
52188;SDS011;38162;45.926;13.608;2024-03-17T04:07:36;20.63;;;16.07;;
52188;SDS011;38162;45.926;13.608;2024-03-17T04:10:02;23.57;;;17.13;;
52188;SDS011;38162;45.926;13.608;2024-03-17T04:12:29;24.83;;;17.27;;
52188;SDS011;38162;45.926;13.608;2024-03-17T04:14:56;25.07;;;18.00;;
52188;SDS011;38162;45.926;13.608;2024-03-17T04:17:23;27.47;;;17.37;;
52188;SDS011;38162;45.926;13.608;2024-03-17T04:19:49;23.60;;;16.97;;
52188;SDS011;38162;45.926;13.608;2024-03-17T04:22:15;23.93;;;16.97;;
52188;SDS011;38162;45.926;13.608;2024-03-17T04:24:42;20.47;;;15.80;;
52188;SDS011;38162;45.926;13.608;2024-03-17T04:27:08;23.07;;;16.77;;
52188;SDS011;38162;45.926;13.608;2024-03-17T04:29:34;28.83;;;17.00;;
52188;SDS011;38162;45.926;13.608;2024-03-17T04:32:00;29.07;;;16.80;;
52188;SDS011;38162;45.926;13.608;2024-03-17T04:34:26;20.53;;;16.53;;
52188;SDS011;38162;45.926;13.608;2024-03-17T04:36:53;22.83;;;15.70;;
52188;SDS011;38162;45.926;13.608;2024-03-17T04:39:19;21.93;;;16.80;;
52188;SDS011;38162;45.926;13.608;2024-03-17T04:41:45;21.30;;;16.07;;
52188;SDS011;38162;45.926;13.608;2024-03-17T04:44:13;20.80;;;16.87;;
52188;SDS011;38162;45.926;13.608;2024-03-17T04:46:39;22.67;;;17.20;;
52188;SDS011;38162;45.926;13.608;2024-03-17T04:49:05;23.83;;;15.60;;
52188;SDS011;38162;45.926;13.608;2024-03-17T04:51:31;23.70;;;16.40;;
52188;SDS011;38162;45.926;13.608;2024-03-17T04:53:58;22.13;;;16.23;;
52188;SDS011;38162;45.926;13.608;2024-03-17T04:56:24;23.03;;;16.67;;
52188;SDS011;38162;45.926;13.608;2024-03-17T04:58:50;26.87;;;16.67;;
52188;SDS011;38162;45.926;13.608;2024-03-17T05:01:16;25.43;;;17.47;;
52188;SDS011;38162;45.926;13.608;2024-03-17T05:03:42;22.20;;;16.57;;
52188;SDS011;38162;45.926;13.608;2024-03-17T05:06:08;28.17;;;16.70;;
52188;SDS011;38162;45.926;13.608;2024-03-17T05:08:34;22.17;;;17.63;;
52188;SDS011;38162;45.926;13.608;2024-03-17T05:11:00;26.03;;;17.27;;
52188;SDS011;38162;45.926;13.608;2024-03-17T05:13:51;25.47;;;17.77;;
52188;SDS011;38162;45.926;13.608;2024-03-17T05:16:19;24.33;;;16.27;;
52188;SDS011;38162;45.926;13.608;2024-03-17T05:35:52;18.77;;;15.63;;
52188;SDS011;38162;45.926;13.608;2024-03-17T05:38:29;21.50;;;16.53;;
52188;SDS011;38162;45.926;13.608;2024-03-17T05:41:35;22.88;;;15.23;;
52188;SDS011;38162;45.926;13.608;2024-03-17T05:44:11;22.43;;;16.60;;
52188;SDS011;38162;45.926;13.608;2024-03-17T05:46:37;21.07;;;14.93;;
52188;SDS011;38162;45.926;13.608;2024-03-17T05:49:03;22.77;;;16.07;;
52188;SDS011;38162;45.926;13.608;2024-03-17T05:51:29;21.17;;;15.87;;
52188;SDS011;38162;45.926;13.608;2024-03-17T05:53:55;17.10;;;13.93;;
52188;SDS011;38162;45.926;13.608;2024-03-17T05:56:21;18.33;;;14.10;;
52188;SDS011;38162;45.926;13.608;2024-03-17T05:58:47;15.77;;;12.53;;
52188;SDS011;38162;45.926;13.608;2024-03-17T06:01:13;17.40;;;13.53;;
52188;SDS011;38162;45.926;13.608;2024-03-17T06:03:39;20.77;;;13.73;;
52188;SDS011;38162;45.926;13.608;2024-03-17T06:06:06;18.47;;;13.33;;
52188;SDS011;38162;45.926;13.608;2024-03-17T06:08:34;17.40;;;13.10;;
52188;SDS011;38162;45.926;13.608;2024-03-17T06:11:01;21.63;;;11.43;;
52188;SDS011;38162;45.926;13.608;2024-03-17T06:13:27;20.63;;;12.07;;
52188;SDS011;38162;45.926;13.608;2024-03-17T06:15:53;19.40;;;11.17;;
52188;SDS011;38162;45.926;13.608;2024-03-17T06:18:19;15.37;;;11.77;;
52188;SDS011;38162;45.926;13.608;2024-03-17T06:20:45;16.73;;;13.47;;
52188;SDS011;38162;45.926;13.608;2024-03-17T06:23:12;18.17;;;14.20;;
52188;SDS011;38162;45.926;13.608;2024-03-17T06:25:45;19.13;;;14.27;;
52188;SDS011;38162;45.926;13.608;2024-03-17T06:28:13;20.33;;;14.43;;
52188;SDS011;38162;45.926;13.608;2024-03-17T06:30:43;23.07;;;14.73;;
52188;SDS011;38162;45.926;13.608;2024-03-17T06:33:12;19.27;;;14.47;;
52188;SDS011;38162;45.926;13.608;2024-03-17T06:35:39;23.10;;;15.93;;
52188;SDS011;38162;45.926;13.608;2024-03-17T06:38:05;22.37;;;17.43;;
52188;SDS011;38162;45.926;13.608;2024-03-17T06:40:35;20.70;;;15.87;;
52188;SDS011;38162;45.926;13.608;2024-03-17T06:43:02;25.47;;;16.07;;
52188;SDS011;38162;45.926;13.608;2024-03-17T06:45:27;19.58;;;15.88;;
52188;SDS011;38162;45.926;13.608;2024-03-17T06:47:53;17.77;;;15.65;;
52188;SDS011;38162;45.926;13.608;2024-03-17T06:50:20;20.92;;;14.82;;
52188;SDS011;38162;45.926;13.608;2024-03-17T06:52:46;19.08;;;14.60;;
52188;SDS011;38162;45.926;13.608;2024-03-17T06:55:12;21.10;;;14.65;;
52188;SDS011;38162;45.926;13.608;2024-03-17T07:01:05;17.95;;;14.45;;
52188;SDS011;38162;45.926;13.608;2024-03-17T07:03:34;17.17;;;13.63;;
52188;SDS011;38162;45.926;13.608;2024-03-17T07:06:00;20.87;;;13.73;;
52188;SDS011;38162;45.926;13.608;2024-03-17T07:19:07;18.92;;;13.02;;
52188;SDS011;38162;45.926;13.608;2024-03-17T07:24:20;23.85;;;13.55;;
52188;SDS011;38162;45.926;13.608;2024-03-17T07:26:49;15.48;;;11.73;;
52188;SDS011;38162;45.926;13.608;2024-03-17T07:29:16;18.27;;;12.43;;
52188;SDS011;38162;45.926;13.608;2024-03-17T07:31:44;19.02;;;11.85;;
52188;SDS011;38162;45.926;13.608;2024-03-17T07:34:10;15.32;;;11.95;;
52188;SDS011;38162;45.926;13.608;2024-03-17T07:36:35;18.48;;;12.77;;
52188;SDS011;38162;45.926;13.608;2024-03-17T07:39:01;18.48;;;13.20;;
52188;SDS011;38162;45.926;13.608;2024-03-17T07:41:27;14.85;;;11.93;;
52188;SDS011;38162;45.926;13.608;2024-03-17T07:43:53;14.55;;;11.90;;
52188;SDS011;38162;45.926;13.608;2024-03-17T07:46:19;14.80;;;11.45;;
52188;SDS011;38162;45.926;13.608;2024-03-17T07:48:45;17.63;;;12.65;;
52188;SDS011;38162;45.926;13.608;2024-03-17T07:51:12;17.77;;;11.40;;
52188;SDS011;38162;45.926;13.608;2024-03-17T07:53:39;20.17;;;12.13;;
52188;SDS011;38162;45.926;13.608;2024-03-17T07:56:07;16.20;;;11.43;;
52188;SDS011;38162;45.926;13.608;2024-03-17T07:58:35;14.70;;;10.82;;
52188;SDS011;38162;45.926;13.608;2024-03-17T08:01:04;34.63;;;11.27;;
52188;SDS011;38162;45.926;13.608;2024-03-17T08:03:32;42.10;;;11.95;;
52188;SDS011;38162;45.926;13.608;2024-03-17T08:05:59;12.30;;;9.25;;
52188;SDS011;38162;45.926;13.608;2024-03-17T08:08:26;11.57;;;8.30;;
52188;SDS011;38162;45.926;13.608;2024-03-17T08:10:52;13.43;;;7.55;;
52188;SDS011;38162;45.926;13.608;2024-03-17T08:13:18;9.30;;;7.07;;
52188;SDS011;38162;45.926;13.608;2024-03-17T08:15:45;10.23;;;6.22;;
52188;SDS011;38162;45.926;13.608;2024-03-17T08:18:12;10.43;;;6.75;;
52188;SDS011;38162;45.926;13.608;2024-03-17T08:20:39;9.65;;;6.30;;
52188;SDS011;38162;45.926;13.608;2024-03-17T08:23:05;8.80;;;6.05;;
52188;SDS011;38162;45.926;13.608;2024-03-17T08:25:34;11.02;;;6.97;;
52188;SDS011;38162;45.926;13.608;2024-03-17T08:28:00;13.00;;;6.43;;
52188;SDS011;38162;45.926;13.608;2024-03-17T08:30:27;10.07;;;6.00;;
52188;SDS011;38162;45.926;13.608;2024-03-17T08:32:52;8.63;;;6.07;;
52188;SDS011;38162;45.926;13.608;2024-03-17T08:35:18;8.30;;;6.47;;
52188;SDS011;38162;45.926;13.608;2024-03-17T08:37:44;10.18;;;6.38;;
52188;SDS011;38162;45.926;13.608;2024-03-17T08:47:20;10.30;;;6.55;;
52188;SDS011;38162;45.926;13.608;2024-03-17T08:50:27;11.25;;;6.07;;
52188;SDS011;38162;45.926;13.608;2024-03-17T09:00:34;10.65;;;5.70;;
52188;SDS011;38162;45.926;13.608;2024-03-17T09:03:04;12.15;;;8.00;;
52188;SDS011;38162;45.926;13.608;2024-03-17T09:06:20;11.30;;;7.00;;
52188;SDS011;38162;45.926;13.608;2024-03-17T09:08:47;11.23;;;7.40;;
52188;SDS011;38162;45.926;13.608;2024-03-17T09:11:13;10.95;;;7.13;;
52188;SDS011;38162;45.926;13.608;2024-03-17T09:13:40;11.65;;;7.22;;
52188;SDS011;38162;45.926;13.608;2024-03-17T09:16:06;13.13;;;7.53;;
52188;SDS011;38162;45.926;13.608;2024-03-17T09:18:36;13.57;;;7.72;;
52188;SDS011;38162;45.926;13.608;2024-03-17T09:23:30;13.85;;;8.82;;
52188;SDS011;38162;45.926;13.608;2024-03-17T09:26:06;13.18;;;9.32;;
52188;SDS011;38162;45.926;13.608;2024-03-17T09:28:33;15.38;;;9.35;;
52188;SDS011;38162;45.926;13.608;2024-03-17T09:31:00;13.55;;;9.57;;
52188;SDS011;38162;45.926;13.608;2024-03-17T09:33:27;14.50;;;9.68;;
52188;SDS011;38162;45.926;13.608;2024-03-17T09:35:55;16.10;;;10.00;;
52188;SDS011;38162;45.926;13.608;2024-03-17T09:38:27;16.55;;;9.75;;
52188;SDS011;38162;45.926;13.608;2024-03-17T09:40:54;12.75;;;9.70;;
52188;SDS011;38162;45.926;13.608;2024-03-17T09:43:23;15.07;;;10.00;;
52188;SDS011;38162;45.926;13.608;2024-03-17T09:45:50;15.88;;;10.88;;
52188;SDS011;38162;45.926;13.608;2024-03-17T09:50:50;15.95;;;11.27;;
52188;SDS011;38162;45.926;13.608;2024-03-17T09:55:52;15.48;;;11.20;;
52188;SDS011;38162;45.926;13.608;2024-03-17T09:58:22;16.20;;;11.65;;
52188;SDS011;38162;45.926;13.608;2024-03-17T10:00:47;16.95;;;11.50;;
52188;SDS011;38162;45.926;13.608;2024-03-17T10:06:20;19.65;;;13.23;;
52188;SDS011;38162;45.926;13.608;2024-03-17T10:08:51;15.70;;;13.32;;
52188;SDS011;38162;45.926;13.608;2024-03-17T10:11:20;15.88;;;11.63;;
52188;SDS011;38162;45.926;13.608;2024-03-17T10:13:47;17.10;;;11.65;;
52188;SDS011;38162;45.926;13.608;2024-03-17T10:16:31;22.02;;;11.43;;
52188;SDS011;38162;45.926;13.608;2024-03-17T10:19:08;17.17;;;11.80;;
52188;SDS011;38162;45.926;13.608;2024-03-17T10:21:42;16.67;;;12.57;;
52188;SDS011;38162;45.926;13.608;2024-03-17T10:47:52;15.85;;;10.10;;
52188;SDS011;38162;45.926;13.608;2024-03-17T10:50:23;16.00;;;11.27;;
52188;SDS011;38162;45.926;13.608;2024-03-17T10:52:49;16.33;;;10.95;;
52188;SDS011;38162;45.926;13.608;2024-03-17T10:55:25;14.05;;;11.50;;
52188;SDS011;38162;45.926;13.608;2024-03-17T10:57:53;18.83;;;13.65;;
52188;SDS011;38162;45.926;13.608;2024-03-17T11:00:23;20.88;;;13.50;;
52188;SDS011;38162;45.926;13.608;2024-03-17T11:02:53;19.63;;;14.40;;
52188;SDS011;38162;45.926;13.608;2024-03-17T11:05:24;20.92;;;14.48;;
52188;SDS011;38162;45.926;13.608;2024-03-17T11:07:54;21.40;;;15.07;;
52188;SDS011;38162;45.926;13.608;2024-03-17T11:10:25;20.60;;;14.40;;
52188;SDS011;38162;45.926;13.608;2024-03-17T11:17:55;18.02;;;14.98;;
52188;SDS011;38162;45.926;13.608;2024-03-17T11:20:42;19.35;;;13.55;;
52188;SDS011;38162;45.926;13.608;2024-03-17T11:23:27;19.00;;;16.02;;
52188;SDS011;38162;45.926;13.608;2024-03-17T11:25:54;22.98;;;17.05;;
52188;SDS011;38162;45.926;13.608;2024-03-17T11:37:00;26.50;;;17.77;;
52188;SDS011;38162;45.926;13.608;2024-03-17T12:05:09;17.30;;;13.82;;
52188;SDS011;38162;45.926;13.608;2024-03-17T12:07:41;19.83;;;15.48;;
52188;SDS011;38162;45.926;13.608;2024-03-17T12:10:09;21.30;;;16.87;;
52188;SDS011;38162;45.926;13.608;2024-03-17T12:12:38;23.73;;;18.67;;
52188;SDS011;38162;45.926;13.608;2024-03-17T12:15:13;23.40;;;18.08;;
52188;SDS011;38162;45.926;13.608;2024-03-17T12:17:43;20.40;;;16.42;;
52188;SDS011;38162;45.926;13.608;2024-03-17T12:20:18;24.92;;;16.95;;
52188;SDS011;38162;45.926;13.608;2024-03-17T12:22:45;21.15;;;16.88;;
52188;SDS011;38162;45.926;13.608;2024-03-17T12:25:16;20.25;;;16.90;;
52188;SDS011;38162;45.926;13.608;2024-03-17T12:30:11;19.92;;;15.32;;
52188;SDS011;38162;45.926;13.608;2024-03-17T12:32:37;22.23;;;16.17;;
52188;SDS011;38162;45.926;13.608;2024-03-17T12:35:03;21.75;;;15.57;;
52188;SDS011;38162;45.926;13.608;2024-03-17T12:37:38;23.05;;;16.85;;
52188;SDS011;38162;45.926;13.608;2024-03-17T12:40:06;21.63;;;16.77;;
52188;SDS011;38162;45.926;13.608;2024-03-17T12:42:47;23.45;;;18.42;;
52188;SDS011;38162;45.926;13.608;2024-03-17T12:45:14;25.80;;;17.77;;
52188;SDS011;38162;45.926;13.608;2024-03-17T12:47:46;22.20;;;17.17;;
52188;SDS011;38162;45.926;13.608;2024-03-17T12:50:13;21.05;;;17.50;;
52188;SDS011;38162;45.926;13.608;2024-03-17T12:52:51;21.08;;;16.75;;
52188;SDS011;38162;45.926;13.608;2024-03-17T12:55:20;24.88;;;19.33;;
52188;SDS011;38162;45.926;13.608;2024-03-17T12:58:06;26.60;;;19.25;;
52188;SDS011;38162;45.926;13.608;2024-03-17T13:01:01;25.52;;;17.88;;
52188;SDS011;38162;45.926;13.608;2024-03-17T13:03:30;22.95;;;17.88;;
52188;SDS011;38162;45.926;13.608;2024-03-17T13:05:59;21.95;;;15.68;;
52188;SDS011;38162;45.926;13.608;2024-03-17T13:08:25;21.65;;;16.42;;
52188;SDS011;38162;45.926;13.608;2024-03-17T13:10:51;20.00;;;16.25;;
52188;SDS011;38162;45.926;13.608;2024-03-17T13:13:17;19.67;;;15.75;;
52188;SDS011;38162;45.926;13.608;2024-03-17T13:15:43;20.10;;;14.18;;
52188;SDS011;38162;45.926;13.608;2024-03-17T13:18:11;20.70;;;15.88;;
52188;SDS011;38162;45.926;13.608;2024-03-17T13:21:02;17.65;;;13.98;;
52188;SDS011;38162;45.926;13.608;2024-03-17T13:24:26;21.15;;;13.68;;
52188;SDS011;38162;45.926;13.608;2024-03-17T13:38:15;19.20;;;14.25;;
52188;SDS011;38162;45.926;13.608;2024-03-17T13:44:16;22.20;;;16.58;;
52188;SDS011;38162;45.926;13.608;2024-03-17T13:46:42;24.40;;;14.77;;
52188;SDS011;38162;45.926;13.608;2024-03-17T13:49:10;22.95;;;15.85;;
52188;SDS011;38162;45.926;13.608;2024-03-17T13:51:36;20.33;;;13.95;;
52188;SDS011;38162;45.926;13.608;2024-03-17T13:54:02;17.98;;;14.57;;
52188;SDS011;38162;45.926;13.608;2024-03-17T13:56:28;21.05;;;13.48;;
52188;SDS011;38162;45.926;13.608;2024-03-17T13:58:54;18.73;;;13.52;;
52188;SDS011;38162;45.926;13.608;2024-03-17T14:01:20;21.40;;;15.30;;
52188;SDS011;38162;45.926;13.608;2024-03-17T14:03:46;16.80;;;14.57;;
52188;SDS011;38162;45.926;13.608;2024-03-17T14:06:12;20.88;;;14.70;;
52188;SDS011;38162;45.926;13.608;2024-03-17T14:08:37;19.95;;;16.45;;
52188;SDS011;38162;45.926;13.608;2024-03-17T14:11:03;19.88;;;15.50;;
52188;SDS011;38162;45.926;13.608;2024-03-17T14:13:29;19.05;;;14.60;;
52188;SDS011;38162;45.926;13.608;2024-03-17T14:15:56;20.50;;;14.52;;
52188;SDS011;38162;45.926;13.608;2024-03-17T14:18:22;21.75;;;15.00;;
52188;SDS011;38162;45.926;13.608;2024-03-17T14:20:49;17.63;;;14.80;;
52188;SDS011;38162;45.926;13.608;2024-03-17T14:23:15;22.00;;;15.40;;
52188;SDS011;38162;45.926;13.608;2024-03-17T14:25:42;22.15;;;15.35;;
52188;SDS011;38162;45.926;13.608;2024-03-17T14:28:08;20.75;;;15.23;;
52188;SDS011;38162;45.926;13.608;2024-03-17T14:30:35;21.05;;;15.20;;
52188;SDS011;38162;45.926;13.608;2024-03-17T14:33:02;16.90;;;15.10;;
52188;SDS011;38162;45.926;13.608;2024-03-17T14:35:31;23.55;;;15.10;;
52188;SDS011;38162;45.926;13.608;2024-03-17T14:37:57;18.70;;;14.07;;
52188;SDS011;38162;45.926;13.608;2024-03-17T14:40:24;22.50;;;13.80;;
52188;SDS011;38162;45.926;13.608;2024-03-17T14:42:54;17.98;;;12.43;;
52188;SDS011;38162;45.926;13.608;2024-03-17T14:45:21;14.88;;;11.32;;
52188;SDS011;38162;45.926;13.608;2024-03-17T14:47:49;18.25;;;11.75;;
52188;SDS011;38162;45.926;13.608;2024-03-17T14:50:15;15.48;;;10.95;;
52188;SDS011;38162;45.926;13.608;2024-03-17T14:52:41;17.42;;;11.25;;
52188;SDS011;38162;45.926;13.608;2024-03-17T14:55:50;15.48;;;10.45;;
52188;SDS011;38162;45.926;13.608;2024-03-17T15:05:16;17.05;;;11.10;;
52188;SDS011;38162;45.926;13.608;2024-03-17T15:15:04;14.27;;;11.75;;
52188;SDS011;38162;45.926;13.608;2024-03-17T15:17:48;16.77;;;11.70;;
52188;SDS011;38162;45.926;13.608;2024-03-17T15:20:17;16.02;;;11.85;;
52188;SDS011;38162;45.926;13.608;2024-03-17T15:22:48;14.45;;;11.05;;
52188;SDS011;38162;45.926;13.608;2024-03-17T15:25:14;13.10;;;10.75;;
52188;SDS011;38162;45.926;13.608;2024-03-17T15:27:44;15.40;;;11.35;;
52188;SDS011;38162;45.926;13.608;2024-03-17T15:30:14;16.13;;;10.88;;
52188;SDS011;38162;45.926;13.608;2024-03-17T15:32:43;16.63;;;11.07;;
52188;SDS011;38162;45.926;13.608;2024-03-17T15:35:13;16.70;;;11.93;;
52188;SDS011;38162;45.926;13.608;2024-03-17T15:37:40;19.23;;;13.95;;
52188;SDS011;38162;45.926;13.608;2024-03-17T15:40:07;17.27;;;12.82;;
52188;SDS011;38162;45.926;13.608;2024-03-17T15:42:41;20.75;;;14.95;;
52188;SDS011;38162;45.926;13.608;2024-03-17T15:45:11;22.98;;;14.38;;
52188;SDS011;38162;45.926;13.608;2024-03-17T15:47:37;22.45;;;14.80;;
52188;SDS011;38162;45.926;13.608;2024-03-17T15:50:03;20.45;;;16.13;;
52188;SDS011;38162;45.926;13.608;2024-03-17T15:52:29;21.15;;;15.40;;
52188;SDS011;38162;45.926;13.608;2024-03-17T15:54:55;20.88;;;16.67;;
52188;SDS011;38162;45.926;13.608;2024-03-17T15:57:21;25.50;;;16.85;;
52188;SDS011;38162;45.926;13.608;2024-03-17T15:59:50;23.13;;;16.20;;
52188;SDS011;38162;45.926;13.608;2024-03-17T16:02:18;21.80;;;15.38;;
52188;SDS011;38162;45.926;13.608;2024-03-17T16:04:46;22.00;;;16.17;;
52188;SDS011;38162;45.926;13.608;2024-03-17T16:07:13;18.63;;;16.05;;
52188;SDS011;38162;45.926;13.608;2024-03-17T16:09:39;24.95;;;16.50;;
52188;SDS011;38162;45.926;13.608;2024-03-17T16:12:05;19.67;;;16.08;;
52188;SDS011;38162;45.926;13.608;2024-03-17T16:14:32;21.70;;;16.63;;
52188;SDS011;38162;45.926;13.608;2024-03-17T16:16:59;25.38;;;18.35;;
52188;SDS011;38162;45.926;13.608;2024-03-17T16:19:26;26.10;;;17.85;;
52188;SDS011;38162;45.926;13.608;2024-03-17T16:21:56;25.38;;;17.65;;
52188;SDS011;38162;45.926;13.608;2024-03-17T16:24:22;27.70;;;18.83;;
52188;SDS011;38162;45.926;13.608;2024-03-17T16:26:48;25.08;;;18.33;;
52188;SDS011;38162;45.926;13.608;2024-03-17T16:29:16;25.02;;;17.73;;
52188;SDS011;38162;45.926;13.608;2024-03-17T16:31:51;24.05;;;18.40;;
52188;SDS011;38162;45.926;13.608;2024-03-17T16:34:54;26.08;;;17.63;;
52188;SDS011;38162;45.926;13.608;2024-03-17T16:37:58;23.45;;;17.13;;
52188;SDS011;38162;45.926;13.608;2024-03-17T16:48:21;20.02;;;16.35;;
52188;SDS011;38162;45.926;13.608;2024-03-17T16:50:47;22.60;;;16.35;;
52188;SDS011;38162;45.926;13.608;2024-03-17T16:53:34;23.67;;;17.63;;
52188;SDS011;38162;45.926;13.608;2024-03-17T16:56:23;20.20;;;17.17;;
52188;SDS011;38162;45.926;13.608;2024-03-17T16:58:49;22.95;;;16.40;;
52188;SDS011;38162;45.926;13.608;2024-03-17T17:01:16;23.13;;;16.27;;
52188;SDS011;38162;45.926;13.608;2024-03-17T17:03:42;21.85;;;17.08;;
52188;SDS011;38162;45.926;13.608;2024-03-17T17:06:08;22.33;;;16.65;;
52188;SDS011;38162;45.926;13.608;2024-03-17T17:08:34;23.23;;;16.17;;
52188;SDS011;38162;45.926;13.608;2024-03-17T17:11:00;21.65;;;16.08;;
52188;SDS011;38162;45.926;13.608;2024-03-17T17:13:28;23.40;;;17.25;;
52188;SDS011;38162;45.926;13.608;2024-03-17T17:15:55;25.23;;;17.80;;
52188;SDS011;38162;45.926;13.608;2024-03-17T17:21:18;25.00;;;18.55;;
52188;SDS011;38162;45.926;13.608;2024-03-17T17:23:45;25.45;;;18.10;;
52188;SDS011;38162;45.926;13.608;2024-03-17T17:26:20;21.35;;;17.45;;
52188;SDS011;38162;45.926;13.608;2024-03-17T17:28:57;27.92;;;18.33;;
52188;SDS011;38162;45.926;13.608;2024-03-17T17:31:25;20.52;;;17.42;;
52188;SDS011;38162;45.926;13.608;2024-03-17T17:33:54;26.35;;;18.58;;
52188;SDS011;38162;45.926;13.608;2024-03-17T17:36:20;22.65;;;17.70;;
52188;SDS011;38162;45.926;13.608;2024-03-17T17:38:48;25.38;;;17.77;;
52188;SDS011;38162;45.926;13.608;2024-03-17T17:41:15;28.40;;;18.50;;
52188;SDS011;38162;45.926;13.608;2024-03-17T17:43:44;23.15;;;16.60;;
52188;SDS011;38162;45.926;13.608;2024-03-17T17:46:13;23.20;;;17.70;;
52188;SDS011;38162;45.926;13.608;2024-03-17T17:48:40;25.65;;;16.98;;
52188;SDS011;38162;45.926;13.608;2024-03-17T17:51:10;23.70;;;18.52;;
52188;SDS011;38162;45.926;13.608;2024-03-17T17:53:43;23.77;;;17.95;;
52188;SDS011;38162;45.926;13.608;2024-03-17T17:56:12;22.85;;;17.35;;
52188;SDS011;38162;45.926;13.608;2024-03-17T17:58:40;22.50;;;17.80;;